Georgetown, Louisiana
Current Conditions -  °F | °C
As of 6:53 PM on Saturday 25 Oct 2014 (Local Time) from KESF Reporting Station
Clear Clear  
Wind Chill: 62°   Ceiling: Unl
Heat Index: 62°   Visibility: 10mi
Dew Point: 59°   Wind: 0mph
Humidity: 90%   Direction: NA
Pressure: 30.09"   Gusts: NA
Location:  31.76°N, 92.38°W
Report Text: KESF 252353Z AUTO 00000KT 10SM CLR 17/15 A3009 RMK AO2 SLP188 T01670150 10278 20167 53001
Loading
Personal Weather Stations






























Interactive Weather Map
Tropical Storm Tracking
New forecast layout! Learn more

10-Day Weather Forecast

Advertisements
Track Severe Weather on mobile